Time;durP1;ratioP1;P1;durP2;ratioP2;P2;SDS_P1;SDS_P2;PMS_P1;PMS_P2;Temp;Humidity;BMP_temperature;BMP_pressure;BME280_temperature;BME280_humidity;BME280_pressure;Samples;Min_cycle;Max_cycle;Signal;HPM_P1;HPM_P2
2024/01/15 00:03:12;;;;;;;32.28;19.35;;;;;;;-0.25;61.07;97060.41;10316078;28;20069;-50
2024/01/15 00:08:11;;;;;;;38.45;19.95;;;;;;;-0.20;60.75;97061.44;10316786;28;20075;-49
2024/01/15 00:13:10;;;;;;;43.97;24.70;;;;;;;-0.40;61.62;97056.59;10317307;28;20034;-50
2024/01/15 00:18:09;;;;;;;46.53;28.50;;;;;;;-0.49;61.37;97046.13;10318909;28;20112;-49
2024/01/15 00:23:08;;;;;;;58.92;37.58;;;;;;;-0.36;61.30;97057.56;10318620;28;20077;-51
2024/01/15 00:28:07;;;;;;;67.45;42.38;;;;;;;-1.73;61.26;96844.50;10318594;28;20112;-49
2024/01/15 00:33:07;;;;;;;54.75;32.75;;;;;;;-0.58;61.46;97048.38;10327122;28;20136;-50
2024/01/15 00:38:06;;;;;;;50.83;30.25;;;;;;;-0.54;62.08;97055.31;10326802;28;20069;-49
2024/01/15 00:43:07;;;;;;;40.30;23.75;;;;;;;-0.84;62.24;97025.53;10326659;28;20033;-51
2024/01/15 00:48:06;;;;;;;32.30;18.70;;;;;;;-0.58;62.52;97053.47;10323361;28;20076;-49
2024/01/15 00:53:05;;;;;;;30.10;17.35;;;;;;;-0.74;62.84;97016.50;10326284;28;20061;-49
2024/01/15 00:58:04;;;;;;;25.50;14.75;;;;;;;-0.58;64.14;97063.66;10326041;28;20049;-49
2024/01/15 01:03:03;;;;;;;114.63;47.63;;;;;;;-0.55;63.67;97034.91;10325744;28;20068;-49
2024/01/15 01:08:02;;;;;;;46.42;25.77;;;;;;;-0.70;65.09;97037.81;10325921;28;20071;-48
2024/01/15 01:13:01;;;;;;;34.28;17.52;;;;;;;-0.62;66.06;97041.47;10325480;28;20076;-46
2024/01/15 01:18:00;;;;;;;36.00;18.35;;;;;;;-0.85;66.01;97013.59;10325311;28;20468;-49
2024/01/15 01:22:59;;;;;;;31.17;17.75;;;;;;;-0.56;65.70;97054.38;10325834;28;20705;-49
2024/01/15 01:27:58;;;;;;;34.10;19.67;;;;;;;-0.69;65.76;97045.50;10324435;28;20065;-49
2024/01/15 01:32:57;;;;;;;78.72;37.28;;;;;;;-1.10;65.35;96966.09;10324706;28;20029;-49
2024/01/15 01:37:56;;;;;;;61.35;33.08;;;;;;;-0.56;65.87;97039.09;10324686;28;20041;-49
2024/01/15 01:42:55;;;;;;;44.53;24.80;;;;;;;-0.94;66.48;97005.66;10323155;28;20522;-49
2024/01/15 01:47:54;;;;;;;39.22;21.23;;;;;;;-0.80;67.53;97034.97;10324343;28;20035;-49
2024/01/15 01:52:53;;;;;;;33.05;19.90;;;;;;;-1.35;67.30;96949.22;10322520;28;20576;-49
2024/01/15 01:57:53;;;;;;;26.30;17.38;;;;;;;-0.98;67.54;97008.06;10323775;28;20570;-48
2024/01/15 02:02:52;;;;;;;34.10;19.35;;;;;;;-1.10;67.90;96989.03;10323793;28;20061;-49
2024/01/15 02:07:51;;;;;;;38.88;24.38;;;;;;;-0.90;67.51;97010.03;10323390;28;20057;-50
2024/01/15 02:12:50;;;;;;;43.20;26.05;;;;;;;-0.95;67.96;97000.50;10323399;28;20041;-48
2024/01/15 02:18:00;;;;;;;50.10;25.95;;;;;;;-1.09;67.53;96984.81;10323317;28;20461;-48
2024/01/15 02:23:13;;;;;;;37.60;22.05;;;;;;;-1.05;67.74;96990.06;10322415;28;20521;-48
2024/01/15 02:28:16;;;;;;;34.60;19.63;;;;;;;-1.08;67.93;97000.13;10321506;28;20175;-49
2024/01/15 02:33:15;;;;;;;32.13;18.98;;;;;;;-1.31;68.17;96955.25;10321958;28;20052;-49
2024/01/15 02:38:14;;;;;;;27.40;18.25;;;;;;;-1.22;69.59;96966.59;10320167;28;20044;-49
2024/01/15 02:43:13;;;;;;;28.83;17.70;;;;;;;-1.29;68.70;96967.19;10320686;28;20037;-48
2024/01/15 02:48:13;;;;;;;26.10;16.77;;;;;;;-1.15;68.35;96967.66;10320457;28;20068;-49
2024/01/15 02:53:12;;;;;;;41.97;22.85;;;;;;;-1.37;68.91;96899.09;10319652;28;20064;-49
2024/01/15 02:58:11;;;;;;;42.35;22.92;;;;;;;-1.14;68.91;96940.50;10321739;28;20123;-48
2024/01/15 03:03:10;;;;;;;42.05;23.25;;;;;;;-1.25;68.65;96915.59;10321223;28;20068;-49
2024/01/15 03:08:08;;;;;;;43.20;23.55;;;;;;;-1.27;69.09;96909.56;10321409;28;20443;-48
2024/01/15 03:13:09;;;;;;;45.45;23.95;;;;;;;-1.26;69.72;96903.69;10320379;28;20045;-49
2024/01/15 03:18:08;;;;;;;44.22;25.85;;;;;;;-1.19;69.97;96903.88;10319164;28;20076;-48
2024/01/15 03:23:07;;;;;;;37.92;22.27;;;;;;;-1.33;69.49;96881.41;10320192;28;20056;-49
2024/01/15 03:28:06;;;;;;;41.10;24.25;;;;;;;-1.17;69.03;96920.06;10320599;28;20492;-48
2024/01/15 03:33:05;;;;;;;31.08;18.23;;;;;;;-1.26;69.64;96884.97;10320516;28;20695;-48
2024/01/15 03:38:06;;;;;;;29.83;16.70;;;;;;;-1.13;70.02;96889.66;10318292;28;20041;-49
2024/01/15 03:43:05;;;;;;;35.40;17.02;;;;;;;-1.51;71.35;96865.56;10320461;28;20076;-49
2024/01/15 03:48:04;;;;;;;38.28;21.13;;;;;;;-1.10;70.65;96905.00;10320615;28;20028;-49
2024/01/15 03:53:03;;;;;;;;;;;;;;;-0.99;69.99;96887.53;10320296;28;20073;-49
2024/01/15 03:58:02;;;;;;;33.35;20.77;;;;;;;-1.29;70.18;96846.72;10320380;28;19960;-48
2024/01/15 04:03:00;;;;;;;36.58;21.65;;;;;;;-1.68;69.96;96774.31;10319198;28;20056;-51
2024/01/15 04:07:59;;;;;;;38.13;22.17;;;;;;;-1.05;69.84;96879.69;10317281;28;20032;-48
2024/01/15 04:13:00;;;;;;;45.72;27.02;;;;;;;-1.23;70.22;96852.88;10320153;28;20100;-50
2024/01/15 04:17:59;;;;;;;54.33;30.23;;;;;;;-1.15;69.46;96870.06;10319105;28;20072;-49
2024/01/15 04:22:58;;;;;;;50.70;29.95;;;;;;;-1.12;70.79;96893.91;10317895;28;20084;-49
2024/01/15 04:27:56;;;;;;;65.57;36.35;;;;;;;-1.23;70.98;96883.41;10318892;28;20024;-49
2024/01/15 04:32:55;;;;;;;123.30;63.83;;;;;;;-1.40;71.54;96855.69;10317528;28;20022;-48
2024/01/15 04:37:54;;;;;;;102.93;55.10;;;;;;;-1.34;70.92;96864.41;10316326;28;20567;-48
2024/01/15 04:42:54;;;;;;;89.00;50.10;;;;;;;-1.52;70.86;96803.63;10318229;28;20529;-48
2024/01/15 04:47:53;;;;;;;79.78;41.33;;;;;;;-1.09;70.73;96852.44;10318754;28;20076;-49
2024/01/15 04:52:52;;;;;;;65.30;34.95;;;;;;;-1.13;70.84;96863.34;10318568;28;20029;-48
2024/01/15 04:57:51;;;;;;;72.10;42.05;;;;;;;-1.18;71.18;96860.66;10318568;28;20084;-49
2024/01/15 05:02:50;;;;;;;118.65;58.10;;;;;;;-1.30;71.88;96845.00;10318700;28;20027;-48
2024/01/15 05:07:49;;;;;;;97.97;48.30;;;;;;;-1.15;71.21;96855.63;10317930;28;20017;-48
2024/01/15 05:12:48;;;;;;;65.38;35.50;;;;;;;-1.16;70.92;96860.69;10317517;28;20046;-49
2024/01/15 05:17:46;;;;;;;65.43;35.47;;;;;;;-1.25;71.31;96849.41;10323759;28;20048;-49
2024/01/15 05:22:45;;;;;;;56.08;31.73;;;;;;;-1.24;72.03;96856.22;10325045;28;20124;-49
2024/01/15 05:27:44;;;;;;;67.80;37.70;;;;;;;-1.90;72.03;96738.88;10324923;28;20024;-50
2024/01/15 05:32:43;;;;;;;80.78;44.88;;;;;;;-1.27;72.12;96848.50;10324656;28;20124;-50
2024/01/15 05:37:45;;;;;;;96.78;52.22;;;;;;;-1.27;71.92;96838.31;10323837;28;20040;-49
2024/01/15 05:42:44;;;;;;;114.88;63.67;;;;;;;-1.26;71.80;96831.53;10322451;28;20073;-50
2024/01/15 05:47:43;;;;;;;106.07;59.25;;;;;;;-1.50;72.18;96811.31;10324644;28;20017;-48
2024/01/15 05:52:42;;;;;;;83.32;47.05;;;;;;;-1.48;71.70;96795.25;10323310;28;20084;-48
2024/01/15 05:57:41;;;;;;;90.65;50.28;;;;;;;-2.46;71.71;96626.16;10319493;28;20039;-49
2024/01/15 06:02:40;;;;;;;103.05;54.28;;;;;;;-1.34;72.72;96818.59;10325389;28;20132;-50
2024/01/15 06:07:39;;;;;;;111.55;62.20;;;;;;;-1.26;72.07;96813.72;10323828;28;20025;-49
2024/01/15 06:12:38;;;;;;;103.47;54.65;;;;;;;-1.28;72.08;96821.31;10323547;28;20042;-49
2024/01/15 06:17:37;;;;;;;142.73;78.30;;;;;;;-1.46;72.82;96800.41;10323386;28;20535;-48
2024/01/15 06:22:39;;;;;;;147.45;78.15;;;;;;;-1.90;72.91;96693.09;10322106;28;20077;-49
2024/01/15 06:27:38;;;;;;;188.15;104.00;;;;;;;-1.28;73.94;96813.69;10321957;28;20075;-49
2024/01/15 06:32:37;;;;;;;172.00;94.90;;;;;;;-1.22;73.59;96818.09;10319628;28;20076;-48
2024/01/15 06:37:36;;;;;;;160.10;86.60;;;;;;;-0.98;72.36;96806.88;10319958;28;20103;-50
2024/01/15 06:42:34;;;;;;;143.27;80.75;;;;;;;-0.89;72.64;96794.41;10322143;28;20069;-49
2024/01/15 06:47:33;;;;;;;136.40;73.95;;;;;;;-0.77;71.91;96796.44;10330705;28;20121;-48
2024/01/15 06:52:32;;;;;;;134.68;66.07;;;;;;;-0.82;72.34;96758.97;10354008;28;20037;-49
2024/01/15 06:57:31;;;;;;;113.57;62.30;;;;;;;-0.19;71.76;96813.28;10355034;28;20029;-48
2024/01/15 07:02:30;;;;;;;106.00;58.45;;;;;;;0.04;71.41;96807.09;10361369;28;20032;-50
2024/01/15 07:07:29;;;;;;;82.78;49.78;;;;;;;0.34;71.12;96818.88;10360572;28;20124;-49
2024/01/15 07:12:28;;;;;;;77.47;42.42;;;;;;;0.76;70.41;96799.41;10355891;28;20032;-49
2024/01/15 07:17:27;;;;;;;81.63;48.05;;;;;;;1.08;67.83;96787.28;10350759;28;20152;-50
2024/01/15 07:22:26;;;;;;;103.22;55.97;;;;;;;1.16;67.16;96769.56;10350969;28;20471;-51
2024/01/15 07:27:25;;;;;;;99.43;57.58;;;;;;;1.44;66.55;96791.41;10357205;28;20486;-48
2024/01/15 07:32:24;;;;;;;68.70;40.80;;;;;;;1.57;66.50;96767.78;10357216;28;20808;-48
2024/01/15 07:37:23;;;;;;;73.05;39.58;;;;;;;1.90;65.02;96771.75;10353113;28;20403;-50
2024/01/15 07:42:22;;;;;;;67.03;39.53;;;;;;;2.27;65.10;96783.47;10357003;28;20084;-49
2024/01/15 07:47:21;;;;;;;78.80;43.55;;;;;;;2.09;63.11;96762.69;10357471;28;20031;-51
2024/01/15 07:52:20;;;;;;;66.15;42.50;;;;;;;2.17;62.59;96759.44;10350537;28;20131;-49
2024/01/15 07:57:19;;;;;;;60.35;37.90;;;;;;;2.56;62.35;96734.41;10354030;28;20029;-50
2024/01/15 08:02:18;;;;;;;32.40;23.40;;;;;;;2.87;59.75;96737.38;10340619;28;20110;-50
2024/01/15 08:07:17;;;;;;;20.15;12.90;;;;;;;3.35;58.05;96738.78;10329708;28;20037;-48
2024/01/15 08:12:16;;;;;;;;;;;;;;;3.82;56.65;96759.81;10339297;28;20124;-50
2024/01/15 08:17:16;;;;;;;35.65;21.95;;;;;;;3.95;56.35;96753.06;10352957;28;20006;-49
2024/01/15 08:22:15;;;;;;;11.10;6.65;;;;;;;4.41;52.07;96747.44;10354429;28;20060;-48
2024/01/15 08:27:14;;;;;;;9.60;6.65;;;;;;;5.07;49.71;96745.28;10345047;28;20542;-47
2024/01/15 08:32:15;;;;;;;7.70;6.00;;;;;;;5.58;47.75;96735.13;10349820;28;20033;-49
2024/01/15 08:37:14;;;;;;;9.30;6.53;;;;;;;5.57;45.87;96658.81;10350941;28;20128;-49
2024/01/15 08:42:13;;;;;;;11.45;5.05;;;;;;;6.20;44.55;96713.75;10340835;28;20136;-50
2024/01/15 08:47:12;;;;;;;6.30;4.57;;;;;;;6.37;42.82;96673.38;10353621;28;20021;-47
2024/01/15 08:52:11;;;;;;;8.82;5.20;;;;;;;6.80;42.69;96693.03;10356632;28;20102;-47
2024/01/15 08:57:11;;;;;;;9.57;6.15;;;;;;;6.98;41.80;96679.19;10344650;28;20119;-48
2024/01/15 09:02:10;;;;;;;6.15;5.30;;;;;;;7.19;41.19;96667.91;10335812;28;20143;-47
2024/01/15 09:07:10;;;;;;;8.40;5.80;;;;;;;7.04;40.45;96637.88;10340092;28;20052;-48
2024/01/15 09:12:09;;;;;;;9.23;5.75;;;;;;;7.40;41.16;96667.81;10339294;28;20485;-49
2024/01/15 09:17:08;;;;;;;7.85;6.25;;;;;;;7.60;40.31;96657.38;10335779;28;20690;-48
2024/01/15 09:22:07;;;;;;;6.93;5.20;;;;;;;8.06;39.91;96649.25;10341089;28;20045;-48
2024/01/15 09:27:06;;;;;;;8.20;5.95;;;;;;;7.80;38.50;96594.38;10337187;28;20147;-48
2024/01/15 09:32:05;;;;;;;8.25;5.78;;;;;;;7.96;38.58;96570.13;10338287;28;20039;-49
2024/01/15 09:37:04;;;;;;;7.13;5.97;;;;;;;8.32;38.56;96587.84;10339059;28;20120;-47
2024/01/15 09:42:05;;;;;;;9.27;6.13;;;;;;;8.06;38.41;96597.59;10338962;28;20148;-47
2024/01/15 09:47:05;;;;;;;19.80;7.15;;;;;;;7.87;38.96;96580.53;10337163;28;20769;-47
2024/01/15 09:52:05;;;;;;;7.30;5.00;;;;;;;7.93;38.70;96588.25;10341299;28;20128;-48
2024/01/15 09:57:04;;;;;;;11.35;5.53;;;;;;;7.94;39.15;96577.03;10339245;28;20037;-48
2024/01/15 10:02:03;;;;;;;8.68;5.80;;;;;;;8.30;39.14;96595.63;10338452;28;20586;-48
2024/01/15 10:07:05;;;;;;;10.60;6.70;;;;;;;8.57;38.51;96588.44;10338919;28;20035;-49
2024/01/15 10:12:04;;;;;;;12.65;8.48;;;;;;;8.61;39.03;96569.41;10333430;28;20111;-48
2024/01/15 10:17:15;;;;;;;10.50;7.88;;;;;;;8.89;39.44;96555.25;10332264;28;20029;-48
2024/01/15 10:22:15;;;;;;;9.88;7.05;;;;;;;9.06;38.28;96572.28;10331088;28;20127;-48
2024/01/15 10:27:15;;;;;;;20.00;12.73;;;;;;;9.27;37.69;96553.84;10332254;28;20661;-50
2024/01/15 10:32:14;;;;;;;8.02;5.40;;;;;;;9.32;37.03;96527.91;10327618;28;20039;-49
2024/01/15 10:37:14;;;;;;;14.65;5.88;;;;;;;9.51;37.04;96529.34;10338844;28;20131;-48
2024/01/15 10:42:13;;;;;;;7.15;5.47;;;;;;;9.76;37.31;96510.78;10356590;28;20119;-48
2024/01/15 10:47:12;;;;;;;7.07;6.25;;;;;;;9.90;36.53;96492.38;10351876;28;20028;-50
2024/01/15 10:52:11;;;;;;;12.10;9.88;;;;;;;9.86;35.52;96450.13;10359071;28;20116;-49
2024/01/15 10:57:11;;;;;;;6.35;5.30;;;;;;;10.32;36.54;96482.91;10356372;28;20124;-49
2024/01/15 11:02:10;;;;;;;5.45;4.60;;;;;;;10.33;36.74;96468.22;10350500;28;20117;-48
2024/01/15 11:07:11;;;;;;;5.63;5.05;;;;;;;10.15;36.52;96415.88;10352682;28;20048;-48
2024/01/15 11:12:13;;;;;;;5.65;5.15;;;;;;;10.16;35.68;96445.22;10351570;28;20123;-48
2024/01/15 11:17:13;;;;;;;5.85;4.97;;;;;;;10.17;35.84;96427.06;10356258;28;20131;-49
2024/01/15 11:22:30;;;;;;;6.22;5.63;;;;;;;10.52;36.94;96469.56;10357652;28;20130;-47
2024/01/15 11:27:51;;;;;;;6.55;5.95;;;;;;;10.54;35.86;96478.16;10347217;28;20155;-47
2024/01/15 11:32:50;;;;;;;5.78;5.28;;;;;;;10.42;36.07;96449.88;10335283;28;20143;-47
2024/01/15 11:37:52;;;;;;;9.23;6.97;;;;;;;10.65;35.52;96469.28;10329499;28;20039;-48
2024/01/15 11:42:52;;;;;;;6.75;5.43;;;;;;;10.38;36.47;96424.91;10355067;28;20060;-47
2024/01/15 11:48:14;;;;;;;5.93;5.32;;;;;;;9.85;36.57;96336.16;10336025;28;20140;-48
2024/01/15 11:53:39;;;;;;;4.85;4.38;;;;;;;10.37;36.94;96438.75;10332568;28;20131;-47
2024/01/15 11:58:38;;;;;;;11.63;8.27;;;;;;;10.04;36.24;96367.72;10331049;28;20850;-48
2024/01/15 12:03:37;;;;;;;8.20;6.35;;;;;;;10.45;37.00;96415.22;10332265;28;20442;-48
2024/01/15 12:08:36;;;;;;;5.35;4.85;;;;;;;10.45;36.63;96421.28;10332353;28;20037;-48
2024/01/15 12:13:35;;;;;;;5.45;4.85;;;;;;;10.40;37.04;96423.97;10333065;28;20036;-47
2024/01/15 12:18:34;;;;;;;5.78;5.15;;;;;;;10.30;37.69;96375.78;10330552;28;20075;-47
2024/01/15 12:23:33;;;;;;;6.43;4.82;;;;;;;10.70;37.58;96399.97;10329320;28;20128;-48
2024/01/15 12:28:32;;;;;;;9.90;6.53;;;;;;;10.74;37.64;96363.53;10343341;28;20127;-47
2024/01/15 12:33:33;;;;;;;16.83;11.27;;;;;;;10.59;38.45;96379.50;10341551;28;20123;-48
2024/01/15 12:38:32;;;;;;;7.13;5.57;;;;;;;10.83;39.18;96358.13;10343814;28;20489;-48
2024/01/15 12:43:31;;;;;;;5.78;5.18;;;;;;;10.84;38.99;96346.00;10343168;28;20414;-47
2024/01/15 12:48:30;;;;;;;5.45;4.93;;;;;;;11.07;38.97;96337.66;10342403;28;20057;-49
2024/01/15 12:53:29;;;;;;;6.95;5.80;;;;;;;11.17;38.54;96333.94;10355538;28;20059;-49
2024/01/15 12:58:28;;;;;;;6.28;4.97;;;;;;;11.43;37.66;96329.78;10359677;28;20136;-49
2024/01/15 13:03:26;;;;;;;7.03;5.97;;;;;;;11.53;38.25;96356.41;10363518;28;20040;-48
2024/01/15 13:08:28;;;;;;;7.97;6.28;;;;;;;11.57;38.14;96358.00;10363154;28;20473;-49
2024/01/15 13:13:27;;;;;;;6.47;5.75;;;;;;;11.57;38.39;96368.38;10355978;28;20079;-49
2024/01/15 13:18:26;;;;;;;7.13;6.20;;;;;;;11.39;38.09;96342.03;10362853;28;20147;-50
2024/01/15 13:23:25;;;;;;;10.40;5.53;;;;;;;11.37;37.96;96341.22;10354369;28;20167;-50
2024/01/15 13:28:24;;;;;;;7.00;6.07;;;;;;;11.15;38.15;96329.69;10355038;28;20033;-50
2024/01/15 13:33:23;;;;;;;9.18;5.70;;;;;;;10.90;39.04;96314.75;10359932;28;20036;-48
2024/01/15 13:38:22;;;;;;;6.40;5.57;;;;;;;10.57;38.82;96291.31;10361957;28;20127;-50
2024/01/15 13:43:21;;;;;;;10.82;6.72;;;;;;;10.37;38.53;96304.75;10362467;28;20103;-50
2024/01/15 13:48:20;;;;;;;6.90;5.93;;;;;;;10.20;39.38;96301.72;10361427;28;20041;-49
2024/01/15 13:53:19;;;;;;;8.48;6.40;;;;;;;10.07;39.49;96332.22;10359475;28;20140;-48
2024/01/15 13:58:18;;;;;;;6.70;5.55;;;;;;;9.85;39.85;96310.25;10361116;28;20120;-49
2024/01/15 14:03:17;;;;;;;;;;;;;;;9.62;40.09;96303.81;10361565;28;20186;-49
2024/01/15 14:08:16;;;;;;;10.20;5.75;;;;;;;9.53;39.75;96309.19;10360491;28;19916;-49
2024/01/15 14:13:15;;;;;;;10.77;6.95;;;;;;;9.45;39.96;96311.94;10356519;28;20082;-49
2024/01/15 14:18:14;;;;;;;15.73;8.52;;;;;;;9.41;40.43;96310.28;10354520;28;20423;-49
2024/01/15 14:23:13;;;;;;;7.65;6.38;;;;;;;8.86;40.66;96231.94;10338871;28;20047;-48
2024/01/15 14:28:12;;;;;;;8.55;6.03;;;;;;;9.24;41.09;96313.16;10338710;28;20569;-48
2024/01/15 14:33:11;;;;;;;10.80;5.47;;;;;;;9.15;40.80;96308.16;10348788;28;20394;-48
2024/01/15 14:38:10;;;;;;;7.85;6.85;;;;;;;9.29;40.47;96315.69;10359386;28;20106;-48
2024/01/15 14:43:10;;;;;;;7.80;6.47;;;;;;;9.25;40.47;96314.84;10358554;28;20108;-49
2024/01/15 14:48:09;;;;;;;12.48;7.20;;;;;;;9.28;40.69;96311.38;10358924;28;20052;-47
2024/01/15 14:53:08;;;;;;;9.85;6.95;;;;;;;8.87;40.93;96272.44;10360025;28;20075;-48
2024/01/15 14:58:07;;;;;;;13.63;7.53;;;;;;;8.66;41.47;96237.47;10350644;28;20106;-49
2024/01/15 15:03:06;;;;;;;12.52;7.47;;;;;;;8.78;42.02;96272.59;10354310;28;20655;-48
2024/01/15 15:08:08;;;;;;;9.75;7.18;;;;;;;8.69;42.13;96267.59;10354462;28;20136;-48
2024/01/15 15:13:07;;;;;;;8.27;6.43;;;;;;;8.62;42.40;96258.22;10359153;28;20064;-48
2024/01/15 15:18:06;;;;;;;10.70;6.68;;;;;;;8.65;42.58;96304.75;10339372;28;20136;-48
2024/01/15 15:23:08;;;;;;;8.95;7.05;;;;;;;8.51;42.41;96273.94;10336316;28;20048;-48
2024/01/15 15:28:08;;;;;;;10.65;7.40;;;;;;;8.54;42.58;96279.06;10344633;28;20115;-48
2024/01/15 15:33:07;;;;;;;10.23;7.28;;;;;;;8.49;42.81;96276.53;10349992;28;20123;-50
2024/01/15 15:38:06;;;;;;;12.32;7.75;;;;;;;8.20;42.87;96234.81;10355442;28;20133;-48
2024/01/15 15:43:05;;;;;;;10.50;8.35;;;;;;;8.35;43.22;96257.81;10357205;28;20107;-49
2024/01/15 15:48:04;;;;;;;;;;;;;;;8.31;43.04;96266.50;10349657;28;20528;-49
2024/01/15 15:53:03;;;;;;;12.02;9.10;;;;;;;8.24;43.21;96254.56;10358714;28;20425;-49
2024/01/15 15:58:03;;;;;;;11.63;7.80;;;;;;;8.19;43.80;96243.44;10359450;28;20164;-48
2024/01/15 16:03:03;;;;;;;10.45;8.30;;;;;;;7.84;43.89;96185.44;10361190;28;20127;-48
2024/01/15 16:08:02;;;;;;;10.45;8.20;;;;;;;7.82;44.28;96211.28;10357621;28;20048;-49
2024/01/15 16:13:02;;;;;;;9.48;7.72;;;;;;;7.87;44.14;96214.66;10359581;28;20068;-50
2024/01/15 16:18:00;;;;;;;8.70;7.63;;;;;;;8.01;44.16;96222.19;10360746;28;20672;-48
2024/01/15 16:22:59;;;;;;;12.38;7.72;;;;;;;8.00;44.01;96212.72;10359876;28;20491;-48
2024/01/15 16:27:58;;;;;;;12.07;7.90;;;;;;;8.19;44.40;96220.19;10360685;28;20032;-47
2024/01/15 16:32:57;;;;;;;12.63;7.63;;;;;;;7.85;44.43;96169.94;10360229;28;20036;-48
2024/01/15 16:37:59;;;;;;;10.25;8.10;;;;;;;7.63;44.39;96122.91;10359558;28;20884;-47
2024/01/15 16:42:58;;;;;;;7.32;6.63;;;;;;;8.22;44.27;96208.06;10360210;28;20060;-47
2024/01/15 16:47:57;;;;;;;8.68;7.45;;;;;;;8.19;44.54;96189.19;10359619;28;20116;-47
2024/01/15 16:52:56;;;;;;;12.57;7.88;;;;;;;8.19;44.46;96209.84;10359254;28;20037;-49
2024/01/15 16:57:56;;;;;;;10.95;7.55;;;;;;;8.14;44.73;96198.75;10359382;28;20025;-47
2024/01/15 17:02:55;;;;;;;11.43;8.10;;;;;;;8.30;44.22;96207.94;10359271;28;20072;-47
2024/01/15 17:07:54;;;;;;;11.10;8.65;;;;;;;8.13;44.16;96192.75;10358136;28;20100;-47
2024/01/15 17:12:53;;;;;;;10.60;7.97;;;;;;;8.14;44.71;96201.34;10363159;28;20470;-47
2024/01/15 17:17:52;;;;;;;9.65;7.80;;;;;;;8.23;44.17;96211.53;10366328;28;20486;-49
2024/01/15 17:22:51;;;;;;;8.80;7.60;;;;;;;8.14;44.73;96209.94;10366596;28;20067;-49
2024/01/15 17:27:50;;;;;;;10.27;7.72;;;;;;;8.13;44.17;96207.34;10366114;28;20060;-49
2024/01/15 17:32:49;;;;;;;10.00;8.13;;;;;;;8.15;44.13;96196.13;10363872;28;20035;-50
2024/01/15 17:37:48;;;;;;;10.57;8.10;;;;;;;7.81;44.27;96152.78;10365287;28;20124;-49
2024/01/15 17:42:49;;;;;;;7.85;6.55;;;;;;;7.87;44.27;96144.06;10365727;28;20124;-48
2024/01/15 17:47:49;;;;;;;8.95;7.25;;;;;;;7.99;44.64;96182.63;10365518;28;20072;-49
2024/01/15 17:52:48;;;;;;;10.20;7.05;;;;;;;7.95;44.67;96180.97;10365465;28;20068;-49
2024/01/15 17:57:47;;;;;;;10.60;8.13;;;;;;;7.92;44.90;96172.41;10364068;28;20138;-51
2024/01/15 18:02:46;;;;;;;10.05;7.82;;;;;;;7.96;44.30;96167.16;10364259;28;20041;-49
2024/01/15 18:07:46;;;;;;;9.15;6.43;;;;;;;7.93;44.05;96158.63;10362669;28;20083;-50
2024/01/15 18:12:48;;;;;;;7.85;6.78;;;;;;;7.74;44.32;96103.84;10364452;28;20020;-49
2024/01/15 18:17:50;;;;;;;7.63;6.22;;;;;;;7.85;44.77;96117.44;10362839;28;20525;-48
2024/01/15 18:22:49;;;;;;;10.13;6.72;;;;;;;7.99;44.50;96143.88;10362152;28;20138;-48
2024/01/15 18:27:48;;;;;;;7.18;6.18;;;;;;;8.09;44.49;96132.50;10361929;28;20036;-50
2024/01/15 18:32:47;;;;;;;7.22;6.30;;;;;;;7.76;44.81;96087.44;10362940;28;20043;-49
2024/01/15 18:37:46;;;;;;;8.25;6.97;;;;;;;6.90;44.45;95925.41;10363537;28;20132;-49
2024/01/15 18:42:45;;;;;;;9.13;6.80;;;;;;;7.95;45.54;96134.47;10362994;28;20047;-49
2024/01/15 18:47:45;;;;;;;10.57;6.70;;;;;;;7.97;45.43;96132.72;10362568;28;20107;-50
2024/01/15 18:52:44;;;;;;;8.77;7.00;;;;;;;7.92;45.23;96113.00;10363105;28;20076;-51
2024/01/15 18:57:43;;;;;;;7.68;6.80;;;;;;;8.09;45.66;96142.00;10360883;28;20065;-50
2024/01/15 19:02:42;;;;;;;8.70;7.28;;;;;;;8.12;45.36;96144.50;10362449;28;20083;-50
2024/01/15 19:07:45;;;;;;;8.52;7.18;;;;;;;7.05;45.20;95979.31;10362237;28;20021;-50
2024/01/15 19:12:45;;;;;;;9.32;6.60;;;;;;;7.93;45.27;96151.72;10362359;28;20078;-49
2024/01/15 19:17:45;;;;;;;9.48;6.85;;;;;;;7.93;45.46;96162.03;10360255;28;20131;-50
2024/01/15 19:22:44;;;;;;;10.43;7.03;;;;;;;7.83;45.39;96135.53;10361882;28;20065;-51
2024/01/15 19:27:44;;;;;;;7.68;6.82;;;;;;;7.88;45.10;96153.53;10361166;28;20103;-48
2024/01/15 19:32:43;;;;;;;9.07;7.20;;;;;;;7.51;46.57;96122.28;10360258;28;20068;-50
2024/01/15 19:37:42;;;;;;;9.15;6.93;;;;;;;7.85;47.61;96189.75;10360890;28;20597;-50
2024/01/15 19:42:41;;;;;;;9.23;6.97;;;;;;;7.72;49.31;96203.69;10359190;28;20060;-49
2024/01/15 19:47:41;;;;;;;8.13;6.20;;;;;;;7.21;52.69;96140.69;10360623;28;20067;-50
2024/01/15 19:52:40;;;;;;;8.77;7.10;;;;;;;7.27;56.71;96206.88;10360729;28;20068;-50
2024/01/15 19:57:39;;;;;;;7.00;6.00;;;;;;;7.05;58.21;96170.16;10359724;28;20499;-48
2024/01/15 20:02:38;;;;;;;8.27;5.82;;;;;;;7.01;59.13;96173.66;10359088;28;20067;-49
2024/01/15 20:07:37;;;;;;;9.10;6.22;;;;;;;6.88;58.99;96185.00;10360123;28;20060;-49
2024/01/15 20:12:40;;;;;;;9.63;7.05;;;;;;;5.60;59.16;95988.03;10360429;28;20021;-49
2024/01/15 20:17:40;;;;;;;8.63;6.93;;;;;;;6.36;59.26;96112.53;10359595;28;20192;-48
2024/01/15 20:22:39;;;;;;;9.60;6.70;;;;;;;6.44;59.45;96150.25;10360286;28;20167;-50
2024/01/15 20:27:38;;;;;;;;;;;;;;;6.42;59.79;96139.09;10359510;28;20513;-48
2024/01/15 20:32:37;;;;;;;8.18;6.38;;;;;;;6.33;60.54;96114.31;10359018;28;19913;-48
2024/01/15 20:37:36;;;;;;;8.88;6.55;;;;;;;6.14;61.84;96086.16;10359842;28;20104;-48
2024/01/15 20:42:35;;;;;;;8.45;6.22;;;;;;;6.23;62.08;96074.03;10360007;28;20041;-48
2024/01/15 20:47:34;;;;;;;8.80;6.93;;;;;;;6.40;63.38;96085.03;10362743;28;20125;-49
2024/01/15 20:52:34;;;;;;;7.65;5.93;;;;;;;6.14;63.85;96054.38;10367819;28;20120;-48
2024/01/15 20:57:33;;;;;;;7.95;5.78;;;;;;;6.25;64.39;96056.84;10367013;28;20079;-51
2024/01/15 21:02:32;;;;;;;7.70;6.22;;;;;;;6.38;63.66;96069.59;10367402;28;20063;-51
2024/01/15 21:07:31;;;;;;;7.45;5.47;;;;;;;6.15;63.20;96027.78;10367325;28;20087;-49
2024/01/15 21:12:30;;;;;;;6.07;5.47;;;;;;;6.53;62.58;96084.00;10367490;28;20083;-50
2024/01/15 21:17:29;;;;;;;8.65;5.35;;;;;;;6.76;61.75;96081.13;10366207;28;20111;-48
2024/01/15 21:22:28;;;;;;;9.52;5.45;;;;;;;6.82;61.03;96104.28;10366670;28;20040;-49
2024/01/15 21:27:27;;;;;;;;;;;;;;;6.88;59.71;96074.13;10366905;28;20061;-48
2024/01/15 21:32:26;;;;;;;6.85;6.00;;;;;;;6.83;59.60;96041.50;10366250;28;19935;-50
2024/01/15 21:37:27;;;;;;;7.25;5.35;;;;;;;5.90;58.61;95862.44;10365570;28;20088;-48
2024/01/15 21:42:26;;;;;;;7.47;5.47;;;;;;;6.50;58.28;95954.34;10365913;28;20525;-48
2024/01/15 21:47:25;;;;;;;7.10;4.82;;;;;;;7.05;58.80;96046.34;10364889;28;20487;-51
2024/01/15 21:52:24;;;;;;;7.78;4.55;;;;;;;7.13;58.19;96044.53;10363898;28;20435;-48
2024/01/15 21:57:23;;;;;;;6.13;5.05;;;;;;;7.32;57.29;96028.78;10363386;28;20498;-48
2024/01/15 22:02:22;;;;;;;8.43;6.05;;;;;;;7.44;57.04;96054.41;10363825;28;20499;-48
2024/01/15 22:07:21;;;;;;;8.75;5.63;;;;;;;7.33;57.56;96017.56;10363920;28;20112;-50
2024/01/15 22:12:23;;;;;;;6.40;4.93;;;;;;;7.31;57.05;96027.06;10365565;28;20144;-48
2024/01/15 22:17:22;;;;;;;5.90;4.70;;;;;;;7.33;57.27;96009.81;10363734;28;20115;-49
2024/01/15 22:22:22;;;;;;;6.97;5.32;;;;;;;7.40;58.01;96001.13;10364606;28;20075;-49
2024/01/15 22:27:21;;;;;;;5.60;4.90;;;;;;;7.37;57.21;95996.00;10363897;28;20549;-48
2024/01/15 22:32:20;;;;;;;6.25;4.90;;;;;;;7.44;56.92;96020.84;10364007;28;20506;-49
2024/01/15 22:37:19;;;;;;;6.85;4.85;;;;;;;7.48;57.26;96013.94;10363800;28;20501;-48
2024/01/15 22:42:18;;;;;;;7.07;4.90;;;;;;;7.43;56.62;95990.78;10364279;28;20723;-48
2024/01/15 22:47:17;;;;;;;5.80;4.47;;;;;;;7.66;56.60;95993.81;10363393;28;20056;-47
2024/01/15 22:52:17;;;;;;;5.05;4.55;;;;;;;7.73;56.40;96009.16;10362464;28;20064;-47
2024/01/15 22:57:16;;;;;;;4.60;4.18;;;;;;;7.58;56.96;96008.56;10363223;28;20120;-50
2024/01/15 23:02:15;;;;;;;5.43;4.40;;;;;;;6.78;56.19;95857.69;10363286;28;20043;-49
2024/01/15 23:07:14;;;;;;;5.32;4.72;;;;;;;5.95;55.38;95722.50;10362624;28;20065;-48
2024/01/15 23:12:13;;;;;;;;;;;;;;;7.96;55.77;96052.66;10363093;28;20792;-48